Time;durP1;ratioP1;P1;durP2;ratioP2;P2;SDS_P1;SDS_P2;PMS_P1;PMS_P2;Temp;Humidity;BMP_temperature;BMP_pressure;BME280_temperature;BME280_humidity;BME280_pressure;Samples;Min_cycle;Max_cycle;Signal;HPM_P1;HPM_P2
2022/12/25 00:00:46;;;;;;;25.02;13.85;;;5.20;99.90;;;;;;4986898;28;20061;-85
2022/12/25 00:03:12;;;;;;;23.65;12.25;;;5.20;99.90;;;;;;4985709;28;20046;-87
2022/12/25 00:05:44;;;;;;;33.05;16.77;;;5.20;99.90;;;;;;4997562;28;20618;-86
2022/12/25 00:08:18;;;;;;;35.33;16.77;;;5.20;99.90;;;;;;5005873;28;20117;-87
2022/12/25 00:10:55;;;;;;;33.40;16.30;;;5.10;99.90;;;;;;5005874;28;20141;-87
2022/12/25 00:13:20;;;;;;;30.40;14.18;;;5.20;99.90;;;;;;5006435;28;20124;-87
2022/12/25 00:15:46;;;;;;;38.40;13.30;;;5.20;99.90;;;;;;5005746;28;20138;-87
2022/12/25 00:18:12;;;;;;;22.27;14.27;;;5.20;99.90;;;;;;5005171;28;20562;-87
2022/12/25 00:20:37;;;;;;;26.95;13.65;;;5.20;99.90;;;;;;5005122;28;20133;-85
2022/12/25 00:23:03;;;;;;;40.20;16.90;;;5.20;99.90;;;;;;5000933;28;20109;-88
2022/12/25 00:25:29;;;;;;;28.48;14.63;;;5.20;99.90;;;;;;4986480;28;20117;-87
2022/12/25 00:27:54;;;;;;;27.73;13.65;;;5.10;99.90;;;;;;4984427;28;20404;-88
2022/12/25 00:30:20;;;;;;;28.10;13.63;;;5.10;99.90;;;;;;5004054;28;20088;-88
2022/12/25 00:32:45;;;;;;;31.05;14.13;;;5.10;99.90;;;;;;4986095;28;20089;-87
2022/12/25 00:35:11;;;;;;;30.58;13.30;;;5.10;99.90;;;;;;4969391;28;20516;-88
2022/12/25 00:37:37;;;;;;;25.95;12.15;;;5.00;99.90;;;;;;4986866;28;20038;-87
2022/12/25 00:40:03;;;;;;;32.30;12.00;;;5.00;99.90;;;;;;4985658;28;20484;-88
2022/12/25 00:42:28;;;;;;;35.22;13.48;;;5.00;99.90;;;;;;4985019;28;20069;-87
2022/12/25 00:44:54;;;;;;;28.63;12.25;;;4.90;99.90;;;;;;4985170;28;20034;-86
2022/12/25 00:47:20;;;;;;;32.28;14.95;;;5.00;99.90;;;;;;4990483;28;20409;-87
2022/12/25 00:49:45;;;;;;;31.50;13.30;;;5.00;99.90;;;;;;4987358;28;20041;-86
2022/12/25 00:52:11;;;;;;;36.90;14.73;;;4.90;99.90;;;;;;4985170;28;20050;-86
2022/12/25 00:54:37;;;;;;;28.55;14.77;;;4.80;99.90;;;;;;4985258;28;20145;-84
2022/12/25 00:57:03;;;;;;;27.55;12.68;;;4.90;99.90;;;;;;4990589;28;20038;-87
2022/12/25 00:59:32;;;;;;;49.50;16.13;;;4.90;99.90;;;;;;5006061;28;20045;-87
2022/12/25 01:02:22;;;;;;;46.17;17.15;;;4.90;99.90;;;;;;5004452;28;20053;-88
2022/12/25 01:04:44;;;;;;;36.15;16.13;;;4.80;99.90;;;;;;5005420;28;20053;-88
2022/12/25 01:07:10;;;;;;;26.42;11.50;;;4.80;99.90;;;;;;5004367;28;20055;-87
2022/12/25 01:12:21;;;;;;;27.30;11.43;;;4.70;99.90;;;;;;5005794;28;20061;-87
2022/12/25 01:14:47;;;;;;;88.90;21.25;;;4.70;99.90;;;;;;5006826;28;20049;-87
2022/12/25 01:17:12;;;;;;;50.38;17.30;;;4.80;99.90;;;;;;5004480;28;20470;-88
2022/12/25 01:19:40;;;;;;;32.08;14.23;;;4.80;99.90;;;;;;4988551;28;20041;-86
2022/12/25 01:22:06;;;;;;;44.72;15.98;;;4.80;99.90;;;;;;5004269;28;20089;-86
2022/12/25 01:24:31;;;;;;;26.30;11.35;;;4.80;99.90;;;;;;5006088;28;20318;-87
2022/12/25 01:26:57;;;;;;;25.60;13.95;;;4.80;99.90;;;;;;5004368;28;20038;-84
2022/12/25 01:29:23;;;;;;;35.25;16.17;;;4.80;99.90;;;;;;5004594;28;20041;-87
2022/12/25 01:31:48;;;;;;;46.75;16.92;;;4.80;99.90;;;;;;5005825;28;20046;-88
2022/12/25 01:34:17;;;;;;;30.80;14.68;;;4.80;99.90;;;;;;4985936;28;20496;-84
2022/12/25 01:36:50;;;;;;;26.30;14.95;;;4.80;99.90;;;;;;4986049;28;20046;-86
2022/12/25 01:39:18;;;;;;;25.00;12.75;;;4.90;99.90;;;;;;4985382;28;20108;-87
2022/12/25 01:41:47;;;;;;;26.40;15.80;;;4.90;99.90;;;;;;4987109;28;20386;-84
2022/12/25 01:44:13;;;;;;;24.80;15.95;;;5.00;99.90;;;;;;4989568;28;20046;-88
2022/12/25 01:46:39;;;;;;;47.47;14.93;;;4.90;99.90;;;;;;4988886;28;20112;-87
2022/12/25 01:49:22;;;;;;;27.27;13.43;;;4.90;99.90;;;;;;4989870;28;20053;-87
2022/12/25 01:52:01;;;;;;;30.50;15.63;;;5.00;99.90;;;;;;4990541;28;20449;-87
2022/12/25 01:54:32;;;;;;;37.35;15.93;;;5.10;99.90;;;;;;4997786;28;20508;-87
2022/12/25 01:57:01;;;;;;;38.00;16.02;;;5.20;99.90;;;;;;5008208;28;20398;-87
2022/12/25 01:59:29;;;;;;;29.05;18.00;;;5.20;99.90;;;;;;5008724;28;20050;-86
2022/12/25 02:01:56;;;;;;;40.25;16.63;;;5.30;99.90;;;;;;4991233;28;20045;-88
2022/12/25 02:04:39;;;;;;;30.23;16.38;;;5.30;99.90;;;;;;5006171;28;20117;-86
2022/12/25 02:07:06;;;;;;;28.05;16.65;;;5.30;99.90;;;;;;5005389;28;20049;-86
2022/12/25 02:09:34;;;;;;;42.95;20.13;;;5.40;99.90;;;;;;4991164;28;20172;-87
2022/12/25 02:12:00;;;;;;;43.03;20.70;;;5.40;99.90;;;;;;5007642;28;20081;-88
2022/12/25 02:14:28;;;;;;;44.03;21.15;;;5.60;99.90;;;;;;5003852;28;20128;-87
2022/12/25 02:17:04;;;;;;;30.95;19.40;;;5.50;99.90;;;;;;4987458;28;20042;-87
2022/12/25 02:19:58;;;;;;;45.45;21.83;;;5.60;99.90;;;;;;4971807;28;20140;-84
2022/12/25 02:22:38;;;;;;;45.20;23.08;;;5.70;99.90;;;;;;4971695;28;20061;-84
2022/12/25 02:25:16;;;;;;;45.58;23.88;;;5.80;99.90;;;;;;4987939;28;20125;-86
2022/12/25 02:28:03;;;;;;;44.70;24.55;;;5.80;99.90;;;;;;4984725;28;20046;-87
2022/12/25 02:30:40;;;;;;;51.97;27.65;;;5.90;99.90;;;;;;5006752;28;20041;-87
2022/12/25 02:36:06;;;;;;;44.55;26.48;;;6.00;99.90;;;;;;5006470;28;20045;-87
2022/12/25 02:39:56;;;;;;;50.85;26.15;;;6.10;99.90;;;;;;5006962;28;20038;-86
2022/12/25 02:41:36;;;;;;;51.45;26.48;;;6.10;99.90;;;;;;5005477;28;20199;-88
2022/12/25 03:06:47;;;;;;;62.38;32.20;;;6.40;99.90;;;;;;4988302;28;20513;-88
2022/12/25 03:12:36;;;;;;;82.40;32.13;;;6.50;99.90;;;;;;4991219;28;20050;-84
2022/12/25 03:17:48;;;;;;;69.15;34.55;;;6.50;99.90;;;;;;5006851;28;20049;-86
2022/12/25 03:28:31;;;;;;;69.80;30.63;;;6.60;99.90;;;;;;4988073;28;20050;-88
2022/12/25 03:31:19;;;;;;;80.90;33.25;;;6.60;99.90;;;;;;4970256;28;20097;-88
2022/12/25 04:38:11;;;;;;;133.88;48.13;;;7.20;99.90;;;;;;5004795;28;20054;-88
2022/12/25 04:40:36;;;;;;;114.93;42.30;;;7.30;99.90;;;;;;5005723;28;20485;-87
2022/12/25 04:43:04;;;;;;;95.45;39.83;;;7.30;99.90;;;;;;5005757;28;20066;-87
2022/12/25 04:45:30;;;;;;;116.68;43.22;;;7.20;99.90;;;;;;5005473;28;20046;-87
2022/12/25 04:47:59;;;;;;;96.22;39.63;;;7.30;99.90;;;;;;5005270;28;20400;-88
2022/12/25 04:50:25;;;;;;;98.78;38.60;;;7.20;99.90;;;;;;5005970;28;20049;-87
2022/12/25 04:52:53;;;;;;;98.13;38.03;;;7.30;99.90;;;;;;4988465;28;20411;-87
2022/12/25 04:55:18;;;;;;;93.10;41.17;;;7.30;99.90;;;;;;5005029;28;20046;-85
2022/12/25 04:58:02;;;;;;;102.60;42.03;;;7.30;99.90;;;;;;5006389;28;20041;-88
2022/12/25 05:00:28;;;;;;;98.22;38.22;;;7.30;99.90;;;;;;5004906;28;20129;-86
2022/12/25 05:02:56;;;;;;;85.20;37.10;;;7.30;99.90;;;;;;4988751;28;20134;-87
2022/12/25 05:05:22;;;;;;;91.78;32.50;;;7.20;99.90;;;;;;4988095;28;20096;-88
2022/12/25 05:07:48;;;;;;;90.63;37.83;;;7.30;99.90;;;;;;5006393;28;20449;-86
2022/12/25 05:10:14;;;;;;;92.53;35.45;;;7.30;99.90;;;;;;5005460;28;20117;-88
2022/12/25 05:12:40;;;;;;;81.07;36.72;;;7.30;99.90;;;;;;4988888;28;20045;-87
2022/12/25 05:15:06;;;;;;;99.03;39.83;;;7.30;99.90;;;;;;4988455;28;20664;-87
2022/12/25 05:17:31;;;;;;;92.07;35.90;;;7.30;99.90;;;;;;5010019;28;20083;-86
2022/12/25 05:20:00;;;;;;;100.22;37.40;;;7.20;99.90;;;;;;5009617;28;20385;-87
2022/12/25 05:22:25;;;;;;;101.30;38.25;;;7.30;99.90;;;;;;5009593;28;20476;-86
2022/12/25 05:24:58;;;;;;;103.60;36.00;;;7.30;99.90;;;;;;5009495;28;20037;-87
2022/12/25 05:27:27;;;;;;;87.10;32.95;;;7.30;99.90;;;;;;5007510;28;20065;-87
2022/12/25 05:29:54;;;;;;;88.18;36.10;;;7.30;99.90;;;;;;5010026;28;20053;-85
2022/12/25 05:32:20;;;;;;;82.60;35.53;;;7.30;99.90;;;;;;5009233;28;20053;-88
2022/12/25 05:34:46;;;;;;;80.05;35.28;;;7.30;99.90;;;;;;5008629;28;20412;-85
2022/12/25 05:37:12;;;;;;;86.03;34.55;;;7.30;99.90;;;;;;4991876;28;20046;-89
2022/12/25 05:39:37;;;;;;;66.18;29.40;;;7.30;99.90;;;;;;5009795;28;20042;-86
2022/12/25 05:42:03;;;;;;;78.80;33.90;;;7.30;99.90;;;;;;5007479;28;20279;-88
2022/12/25 05:44:29;;;;;;;84.65;32.83;;;7.30;99.90;;;;;;4992889;28;20100;-88
2022/12/25 05:46:54;;;;;;;83.40;33.97;;;7.30;99.90;;;;;;4991659;28;20499;-88
2022/12/25 05:49:25;;;;;;;81.15;32.60;;;7.30;99.90;;;;;;5009763;28;20120;-88
2022/12/25 05:51:56;;;;;;;90.05;34.15;;;7.30;99.90;;;;;;5009403;28;20069;-87
2022/12/25 05:54:21;;;;;;;109.40;37.47;;;7.30;99.90;;;;;;5009889;28;20034;-87
2022/12/25 05:56:47;;;;;;;82.95;34.60;;;7.30;99.90;;;;;;5009352;28;20361;-87
2022/12/25 05:59:15;;;;;;;79.72;32.60;;;7.30;99.90;;;;;;5008242;28;20057;-88
2022/12/25 06:01:40;;;;;;;82.55;31.75;;;7.40;99.90;;;;;;5009901;28;20100;-86
2022/12/25 06:04:06;;;;;;;85.43;35.50;;;7.40;99.90;;;;;;4994923;28;20046;-87
2022/12/25 06:06:32;;;;;;;82.40;33.15;;;7.40;99.90;;;;;;4972005;28;20062;-86
2022/12/25 06:08:57;;;;;;;83.18;35.15;;;7.20;99.90;;;;;;4989123;28;20516;-86
2022/12/25 06:11:26;;;;;;;90.70;33.55;;;7.40;99.90;;;;;;4988792;28;20038;-88
2022/12/25 06:13:54;;;;;;;88.45;35.22;;;7.40;99.90;;;;;;4988518;28;20050;-87
2022/12/25 06:16:23;;;;;;;72.93;34.67;;;7.40;99.90;;;;;;4989878;28;20046;-88
2022/12/25 06:18:59;;;;;;;104.10;35.17;;;7.40;99.90;;;;;;4988553;28;20125;-88
2022/12/25 06:21:24;;;;;;;87.43;34.53;;;7.40;99.90;;;;;;4988143;28;20544;-87
2022/12/25 06:23:50;;;;;;;92.70;34.08;;;7.50;99.90;;;;;;4988092;28;20077;-86
2022/12/25 06:26:18;;;;;;;89.13;34.17;;;7.40;99.90;;;;;;4990429;28;20053;-88
2022/12/25 06:28:44;;;;;;;97.38;36.35;;;7.40;99.90;;;;;;4990640;28;20084;-88
2022/12/25 06:31:14;;;;;;;87.20;35.47;;;7.40;99.90;;;;;;5007536;28;20132;-86
2022/12/25 06:33:40;;;;;;;77.45;32.20;;;7.50;99.90;;;;;;4991521;28;20085;-88
2022/12/25 06:36:17;;;;;;;76.80;32.85;;;7.40;99.90;;;;;;4990495;28;20042;-87
2022/12/25 06:38:43;;;;;;;102.40;38.03;;;7.50;99.90;;;;;;5007610;28;20042;-86
2022/12/25 06:41:30;;;;;;;93.88;37.50;;;7.40;99.90;;;;;;5007741;28;20535;-83
2022/12/25 06:43:59;;;;;;;84.25;37.20;;;7.50;99.90;;;;;;5007989;28;20523;-88
2022/12/25 06:46:28;;;;;;;102.35;38.60;;;7.50;99.90;;;;;;4990639;28;20137;-89
2022/12/25 06:49:02;;;;;;;76.05;33.38;;;7.60;99.90;;;;;;5008617;28;20037;-89
2022/12/25 06:51:30;;;;;;;83.82;35.25;;;7.50;99.90;;;;;;4990471;28;20034;-84
2022/12/25 06:54:02;;;;;;;91.63;35.92;;;7.50;99.90;;;;;;5008086;28;20049;-84
2022/12/25 06:56:29;;;;;;;113.28;37.63;;;7.60;99.90;;;;;;5006093;28;20072;-87
2022/12/25 06:59:07;;;;;;;89.50;35.10;;;7.60;99.90;;;;;;5008079;28;20088;-88
2022/12/25 07:01:38;;;;;;;84.95;34.70;;;7.50;99.90;;;;;;5006782;28;20053;-88
2022/12/25 07:04:09;;;;;;;91.18;38.05;;;7.60;99.90;;;;;;5006721;28;20554;-87
2022/12/25 07:06:35;;;;;;;91.40;37.28;;;7.60;99.90;;;;;;5006406;28;20080;-87
2022/12/25 07:09:01;;;;;;;92.47;37.33;;;7.60;99.90;;;;;;4990411;28;20084;-88
2022/12/25 07:11:27;;;;;;;90.78;35.95;;;7.70;99.90;;;;;;4989764;28;20049;-89
2022/12/25 07:13:59;;;;;;;109.30;38.00;;;7.70;99.90;;;;;;4990312;28;20034;-87
2022/12/25 07:16:24;;;;;;;91.30;35.97;;;7.70;99.90;;;;;;5008213;28;20041;-87
2022/12/25 07:18:50;;;;;;;88.85;34.58;;;7.70;99.90;;;;;;5006578;28;20401;-87
2022/12/25 07:21:19;;;;;;;97.85;37.60;;;7.70;99.90;;;;;;5008670;28;20378;-88
2022/12/25 07:23:47;;;;;;;90.03;33.78;;;7.70;99.90;;;;;;5006981;28;20095;-88
2022/12/25 07:26:16;;;;;;;74.20;34.20;;;7.70;99.90;;;;;;4988133;28;20052;-88
2022/12/25 07:28:42;;;;;;;72.82;31.33;;;7.70;99.90;;;;;;4986634;28;20046;-88
2022/12/25 07:31:13;;;;;;;85.30;32.58;;;7.70;99.90;;;;;;4971009;28;20527;-89
2022/12/25 07:33:39;;;;;;;86.82;36.70;;;7.80;99.90;;;;;;4986981;28;20085;-87
2022/12/25 07:36:06;;;;;;;75.50;34.03;;;7.80;99.90;;;;;;4986398;28;20046;-88
2022/12/25 07:38:32;;;;;;;94.95;36.38;;;7.80;99.90;;;;;;4970881;28;20050;-86
2022/12/25 07:40:58;;;;;;;91.40;34.60;;;7.80;99.90;;;;;;4991433;28;20034;-87
2022/12/25 07:43:24;;;;;;;80.05;33.92;;;7.80;99.90;;;;;;5006569;28;20531;-88
2022/12/25 07:45:58;;;;;;;91.80;33.78;;;7.80;99.90;;;;;;5007160;28;20049;-88
2022/12/25 07:48:27;;;;;;;66.10;30.95;;;7.80;99.90;;;;;;5007549;28;20038;-87
2022/12/25 07:51:01;;;;;;;86.03;33.13;;;7.80;99.90;;;;;;5002468;28;20046;-87
2022/12/25 07:53:30;;;;;;;79.32;33.28;;;7.80;99.90;;;;;;5006260;28;20119;-87
2022/12/25 07:56:01;;;;;;;76.45;29.60;;;7.80;99.90;;;;;;4999097;28;20069;-89
2022/12/25 07:58:28;;;;;;;74.45;31.42;;;7.80;99.90;;;;;;4995703;28;20081;-86
2022/12/25 08:01:16;;;;;;;70.80;31.92;;;7.80;99.90;;;;;;5004279;28;20042;-88
2022/12/25 08:03:42;;;;;;;71.55;32.08;;;7.80;99.90;;;;;;4986907;28;20394;-88
2022/12/25 08:06:09;;;;;;;72.85;32.30;;;7.80;99.90;;;;;;4970238;28;20572;-86
2022/12/25 08:08:37;;;;;;;74.18;29.50;;;7.80;99.90;;;;;;4986286;28;20121;-88
2022/12/25 08:11:03;;;;;;;79.88;30.80;;;7.80;99.90;;;;;;4989828;28;20405;-87
2022/12/25 08:13:32;;;;;;;64.45;28.30;;;7.80;99.90;;;;;;5003184;28;20049;-88
2022/12/25 08:16:02;;;;;;;68.15;28.40;;;7.80;99.90;;;;;;5006197;28;20049;-87
2022/12/25 08:18:29;;;;;;;60.15;24.63;;;7.70;99.90;;;;;;4972549;28;20073;-87
2022/12/25 08:21:08;;;;;;;73.47;24.92;;;7.70;99.90;;;;;;4993668;28;20400;-83
2022/12/25 08:23:39;;;;;;;57.15;24.38;;;7.70;99.90;;;;;;5004629;28;20042;-88
2022/12/25 08:26:07;;;;;;;64.55;23.08;;;7.70;99.90;;;;;;5003568;28;20085;-86
2022/12/25 08:28:34;;;;;;;58.10;24.95;;;7.70;99.90;;;;;;4989578;28;20068;-89
2022/12/25 08:31:07;;;;;;;61.17;24.13;;;7.70;99.90;;;;;;4985969;28;20034;-87
2022/12/25 08:33:35;;;;;;;53.88;21.98;;;7.70;99.90;;;;;;4986486;28;20404;-87
2022/12/25 08:36:05;;;;;;;44.53;23.13;;;7.70;99.90;;;;;;4986830;28;20050;-88
2022/12/25 08:38:31;;;;;;;55.33;23.65;;;7.70;99.90;;;;;;4987521;28;20046;-87
2022/12/25 08:41:02;;;;;;;49.70;20.90;;;7.80;99.90;;;;;;4984136;28;20149;-89
2022/12/25 08:43:28;;;;;;;59.13;22.20;;;7.80;99.90;;;;;;4984400;28;20374;-85
2022/12/25 08:45:54;;;;;;;48.00;22.35;;;7.80;99.90;;;;;;5001180;28;20045;-88
2022/12/25 08:48:20;;;;;;;53.80;21.58;;;7.80;99.90;;;;;;4998621;28;20558;-89
2022/12/25 08:50:47;;;;;;;41.95;22.90;;;7.90;99.90;;;;;;5006525;28;20049;-87
2022/12/25 08:53:15;;;;;;;45.65;18.27;;;7.80;99.90;;;;;;5004690;28;20841;-91
2022/12/25 08:55:41;;;;;;;42.20;19.65;;;7.80;99.90;;;;;;5004926;28;20519;-89
2022/12/25 08:58:07;;;;;;;36.78;17.85;;;7.80;99.90;;;;;;5002966;28;20030;-87
2022/12/25 09:00:32;;;;;;;42.70;20.13;;;7.80;99.90;;;;;;4987060;28;20046;-85
2022/12/25 09:02:58;;;;;;;43.45;19.08;;;7.80;99.90;;;;;;5006546;28;20038;-83
2022/12/25 09:05:24;;;;;;;43.47;18.67;;;7.90;99.90;;;;;;4993502;28;20493;-88
2022/12/25 09:07:53;;;;;;;39.33;18.40;;;7.80;99.90;;;;;;4996535;28;20050;-87
2022/12/25 09:10:18;;;;;;;33.15;18.55;;;7.80;99.90;;;;;;5003190;28;20046;-86
2022/12/25 09:12:44;;;;;;;30.90;16.25;;;7.80;99.90;;;;;;5006794;28;20084;-86
2022/12/25 09:15:12;;;;;;;34.35;16.80;;;7.80;99.90;;;;;;5006105;28;20042;-85
2022/12/25 09:17:38;;;;;;;32.67;16.13;;;7.80;99.90;;;;;;5006772;28;20131;-86
2022/12/25 09:20:05;;;;;;;40.30;17.60;;;7.80;99.90;;;;;;5003504;28;20424;-86
2022/12/25 09:22:32;;;;;;;34.83;16.25;;;7.80;99.90;;;;;;4986206;28;20150;-88
2022/12/25 09:25:00;;;;;;;32.28;15.73;;;7.80;99.90;;;;;;4976428;28;20046;-87
2022/12/25 09:27:26;;;;;;;35.17;15.95;;;7.80;99.90;;;;;;4997846;28;20046;-88
2022/12/25 09:29:52;;;;;;;42.70;16.23;;;7.90;99.90;;;;;;4978563;28;20125;-87
2022/12/25 09:32:17;;;;;;;27.45;15.38;;;7.90;99.90;;;;;;5003963;28;20066;-87
2022/12/25 09:34:43;;;;;;;31.02;15.48;;;7.90;99.90;;;;;;5001860;28;20034;-87
2022/12/25 09:37:09;;;;;;;23.90;13.80;;;7.90;99.90;;;;;;4996248;28;20141;-87
2022/12/25 09:39:35;;;;;;;32.05;14.80;;;7.90;99.90;;;;;;4995371;28;20120;-86
2022/12/25 09:42:05;;;;;;;29.60;13.90;;;7.90;99.90;;;;;;4995847;28;20133;-87
2022/12/25 09:44:34;;;;;;;26.65;14.05;;;8.00;99.90;;;;;;5000161;28;20112;-85
2022/12/25 09:47:04;;;;;;;32.78;14.13;;;8.00;99.90;;;;;;4990802;28;20045;-86
2022/12/25 09:49:59;;;;;;;28.73;13.45;;;8.00;99.90;;;;;;5006554;28;20392;-85
2022/12/25 09:52:40;;;;;;;38.10;14.23;;;8.00;99.90;;;;;;5006511;28;20042;-85
2022/12/25 09:55:35;;;;;;;23.35;13.05;;;8.00;99.90;;;;;;4987597;28;20084;-86
2022/12/25 09:58:07;;;;;;;23.60;13.77;;;8.00;99.90;;;;;;5005441;28;20068;-87
2022/12/25 10:00:39;;;;;;;32.42;13.95;;;8.10;99.90;;;;;;4996322;28;20081;-87
2022/12/25 10:03:15;;;;;;;31.88;15.38;;;8.00;99.90;;;;;;4990863;28;20046;-83
2022/12/25 10:06:09;;;;;;;36.05;16.52;;;8.10;99.90;;;;;;4996162;28;20212;-85
2022/12/25 10:09:12;;;;;;;29.95;16.02;;;8.10;99.90;;;;;;5007757;28;20132;-86
2022/12/25 10:12:16;;;;;;;36.25;16.75;;;8.10;99.90;;;;;;4982581;28;20057;-86
2022/12/25 10:15:06;;;;;;;35.15;15.93;;;8.10;99.90;;;;;;5001349;28;20046;-86
2022/12/25 10:18:05;;;;;;;41.22;18.75;;;8.10;99.90;;;;;;4979102;28;20046;-80
2022/12/25 10:20:59;;;;;;;32.53;15.10;;;8.10;99.90;;;;;;5008437;28;20045;-80
2022/12/25 10:23:50;;;;;;;33.03;17.45;;;8.10;99.90;;;;;;5007531;28;20054;-80
2022/12/25 10:26:23;;;;;;;35.95;15.93;;;8.10;99.90;;;;;;5010007;28;20128;-82
2022/12/25 10:29:01;;;;;;;29.17;15.07;;;8.20;99.90;;;;;;5004933;28;20500;-82
2022/12/25 10:31:29;;;;;;;35.08;17.25;;;8.20;99.90;;;;;;4999475;28;20177;-82
2022/12/25 10:33:55;;;;;;;32.53;16.73;;;8.20;99.90;;;;;;5006916;28;20049;-82
2022/12/25 10:36:24;;;;;;;43.95;18.38;;;8.20;99.90;;;;;;5009158;28;20388;-84
2022/12/25 10:38:50;;;;;;;42.10;15.02;;;8.20;99.90;;;;;;5003918;28;20038;-78
2022/12/25 10:41:33;;;;;;;36.10;15.18;;;8.20;99.90;;;;;;4998896;28;20125;-83
2022/12/25 10:43:59;;;;;;;30.02;16.15;;;8.20;99.90;;;;;;4997299;28;20049;-82
2022/12/25 10:46:27;;;;;;;31.52;15.50;;;8.30;99.90;;;;;;4994872;28;20042;-83
2022/12/25 10:48:58;;;;;;;30.85;16.67;;;8.20;99.90;;;;;;5002312;28;20052;-83
2022/12/25 10:51:36;;;;;;;35.45;17.17;;;8.20;99.90;;;;;;5001409;28;20049;-82
2022/12/25 10:54:16;;;;;;;32.05;16.40;;;8.20;99.90;;;;;;5006134;28;20045;-84
2022/12/25 10:56:59;;;;;;;29.25;15.35;;;8.30;99.90;;;;;;5008366;28;20085;-83
2022/12/25 10:59:33;;;;;;;42.05;16.00;;;8.30;99.90;;;;;;5003540;28;20082;-83
2022/12/25 11:02:25;;;;;;;38.80;18.92;;;8.30;99.90;;;;;;4992410;28;20089;-82
2022/12/25 11:05:06;;;;;;;35.15;16.40;;;8.30;99.90;;;;;;4999706;28;20046;-81
2022/12/25 11:07:41;;;;;;;40.55;19.80;;;8.30;99.90;;;;;;4992991;28;20045;-81
2022/12/25 11:10:24;;;;;;;42.30;15.02;;;8.30;99.90;;;;;;4993505;28;20049;-81
2022/12/25 11:12:51;;;;;;;35.00;16.77;;;8.30;99.90;;;;;;4990112;28;20452;-82
2022/12/25 11:15:40;;;;;;;40.05;17.65;;;8.30;99.90;;;;;;5001086;28;20040;-83
2022/12/25 11:18:19;;;;;;;39.97;17.55;;;8.30;99.90;;;;;;5005190;28;20038;-83
2022/12/25 11:21:00;;;;;;;29.00;15.32;;;8.40;99.90;;;;;;5004220;28;20048;-83
2022/12/25 11:23:28;;;;;;;31.02;14.25;;;8.40;99.90;;;;;;5005112;28;20034;-81
2022/12/25 11:25:59;;;;;;;30.83;16.25;;;8.40;99.90;;;;;;4994481;28;20073;-84
2022/12/25 11:28:27;;;;;;;26.38;13.05;;;8.40;99.90;;;;;;4999674;28;20031;-82
2022/12/25 11:30:58;;;;;;;29.30;12.70;;;8.40;99.90;;;;;;5003343;28;20131;-82
2022/12/25 11:33:30;;;;;;;21.85;13.60;;;8.40;99.90;;;;;;4991877;28;20065;-83
2022/12/25 11:36:01;;;;;;;30.13;12.02;;;8.40;99.90;;;;;;5007192;28;20053;-82
2022/12/25 11:38:27;;;;;;;26.73;12.98;;;8.50;99.90;;;;;;5008017;28;20033;-80
2022/12/25 11:40:57;;;;;;;25.00;12.93;;;8.50;99.90;;;;;;4994952;28;20130;-82
2022/12/25 11:43:32;;;;;;;22.35;12.52;;;8.50;99.90;;;;;;5003533;28;20045;-82
2022/12/25 11:46:12;;;;;;;22.40;13.20;;;8.50;99.90;;;;;;5006893;28;20042;-83
2022/12/25 11:48:45;;;;;;;16.92;10.63;;;8.50;99.90;;;;;;5002933;28;20043;-78
2022/12/25 11:51:13;;;;;;;29.67;11.57;;;8.50;99.90;;;;;;4996218;28;20120;-83
2022/12/25 11:53:50;;;;;;;21.80;12.05;;;8.50;99.90;;;;;;4994310;28;20548;-79
2022/12/25 11:56:24;;;;;;;22.40;11.73;;;8.50;99.90;;;;;;5002865;28;20058;-79
2022/12/25 11:58:53;;;;;;;26.92;11.90;;;8.60;99.90;;;;;;5006217;28;20061;-78
2022/12/25 12:01:42;;;;;;;20.42;12.40;;;8.50;99.90;;;;;;4993646;28;20065;-80
2022/12/25 12:04:24;;;;;;;19.75;12.02;;;8.60;99.90;;;;;;5003151;28;20125;-78
2022/12/25 12:06:57;;;;;;;23.50;10.10;;;8.60;99.90;;;;;;5005985;28;20033;-79
2022/12/25 12:09:35;;;;;;;27.25;12.27;;;8.60;99.90;;;;;;5001884;28;20091;-78
2022/12/25 12:12:19;;;;;;;23.73;12.38;;;8.60;99.90;;;;;;5004441;28;20091;-78
2022/12/25 12:14:55;;;;;;;19.40;9.95;;;8.60;99.90;;;;;;5005781;28;20122;-78
2022/12/25 12:17:20;;;;;;;22.98;12.50;;;8.60;99.90;;;;;;5004743;28;20092;-78
2022/12/25 12:19:46;;;;;;;20.30;10.70;;;8.60;99.90;;;;;;5005282;28;20054;-78
2022/12/25 12:22:30;;;;;;;22.92;10.98;;;8.60;99.90;;;;;;5005015;28;20046;-78
2022/12/25 12:25:03;;;;;;;19.63;11.75;;;8.60;99.90;;;;;;5003345;28;20392;-78
2022/12/25 12:27:35;;;;;;;22.60;10.95;;;8.60;99.90;;;;;;5006295;28;20068;-78
2022/12/25 12:30:02;;;;;;;;;;;8.70;99.90;;;;;;5005311;28;20128;-78
2022/12/25 12:32:43;;;;;;;19.75;10.18;;;8.70;99.90;;;;;;5004910;28;19921;-78
2022/12/25 12:35:23;;;;;;;15.70;8.67;;;8.60;99.90;;;;;;5004475;28;20049;-78
2022/12/25 12:37:56;;;;;;;18.13;11.40;;;8.60;99.90;;;;;;5006059;28;20053;-79
2022/12/25 12:40:40;;;;;;;22.17;9.27;;;8.70;99.90;;;;;;5005084;28;20033;-78
2022/12/25 12:43:21;;;;;;;22.65;11.25;;;8.70;99.90;;;;;;5005944;28;20053;-78
2022/12/25 12:45:55;;;;;;;20.65;9.98;;;8.70;99.90;;;;;;5005190;28;20045;-78
2022/12/25 12:48:25;;;;;;;15.15;8.68;;;8.70;99.90;;;;;;5006011;28;20064;-78
2022/12/25 12:51:05;;;;;;;14.23;8.68;;;8.70;99.90;;;;;;5005604;28;20076;-79
2022/12/25 12:53:32;;;;;;;15.63;9.88;;;8.70;99.90;;;;;;5006114;28;20045;-78
2022/12/25 12:56:09;;;;;;;16.85;8.90;;;8.70;99.90;;;;;;5004898;28;20378;-78
2022/12/25 12:58:38;;;;;;;17.05;10.18;;;8.70;99.90;;;;;;5004683;28;20127;-78
2022/12/25 13:01:09;;;;;;;16.15;10.35;;;8.70;99.90;;;;;;5004040;28;20137;-78
2022/12/25 13:04:04;;;;;;;19.90;10.20;;;8.70;99.90;;;;;;5005750;28;20030;-78
2022/12/25 13:06:40;;;;;;;15.55;9.10;;;8.70;99.90;;;;;;5004394;28;20042;-78
2022/12/25 13:09:39;;;;;;;15.80;9.30;;;8.70;99.90;;;;;;5004747;28;20522;-78
2022/12/25 13:12:11;;;;;;;18.52;9.38;;;8.70;99.90;;;;;;5005120;28;20054;-78
2022/12/25 13:14:42;;;;;;;16.08;9.55;;;8.60;99.90;;;;;;5005374;28;20488;-78
2022/12/25 13:17:08;;;;;;;16.02;8.93;;;8.70;99.90;;;;;;5005375;28;20527;-78
2022/12/25 13:19:35;;;;;;;21.15;10.23;;;8.70;99.90;;;;;;5004564;28;20042;-78
2022/12/25 13:22:04;;;;;;;14.32;7.78;;;8.60;99.90;;;;;;5005766;28;20073;-78
2022/12/25 13:24:32;;;;;;;23.58;9.15;;;8.70;99.90;;;;;;5004500;28;20034;-78
2022/12/25 13:26:59;;;;;;;17.40;9.45;;;8.60;99.90;;;;;;5005389;28;20037;-78
2022/12/25 13:29:29;;;;;;;15.68;8.82;;;8.70;99.90;;;;;;5005776;28;20138;-79
2022/12/25 13:32:00;;;;;;;17.17;10.32;;;8.60;99.90;;;;;;5003958;28;20117;-78
2022/12/25 13:34:33;;;;;;;34.78;14.45;;;8.70;99.90;;;;;;5020917;28;20543;-78
2022/12/25 13:37:11;;;;;;;19.45;11.38;;;8.70;99.90;;;;;;5006968;28;20049;-78
2022/12/25 13:39:50;;;;;;;22.60;15.82;;;8.70;99.90;;;;;;5007150;28;20042;-78
2022/12/25 13:42:20;;;;;;;19.05;11.77;;;8.70;99.90;;;;;;5008384;28;20326;-78
2022/12/25 13:44:49;;;;;;;14.95;8.75;;;8.70;99.90;;;;;;5008298;28;20046;-78
2022/12/25 13:47:17;;;;;;;15.65;9.23;;;8.70;99.90;;;;;;5008481;28;20042;-79
2022/12/25 13:49:43;;;;;;;14.35;8.40;;;8.70;99.90;;;;;;5007710;28;20050;-78
2022/12/25 13:52:11;;;;;;;19.35;11.60;;;8.60;99.90;;;;;;5008793;28;20046;-78
2022/12/25 13:54:37;;;;;;;21.00;11.57;;;8.70;99.90;;;;;;5008120;28;20053;-78
2022/12/25 13:57:10;;;;;;;16.17;11.13;;;8.60;99.90;;;;;;5023697;28;20042;-78
2022/12/25 13:59:36;;;;;;;17.15;11.68;;;8.70;99.90;;;;;;5008913;28;20129;-78
2022/12/25 14:02:02;;;;;;;17.40;10.18;;;8.70;99.90;;;;;;5008364;28;20108;-78
2022/12/25 14:04:28;;;;;;;17.23;10.98;;;8.60;99.90;;;;;;5009362;28;20038;-78
2022/12/25 14:06:54;;;;;;;13.77;10.20;;;8.60;99.90;;;;;;5008755;28;20046;-78
2022/12/25 14:09:20;;;;;;;16.10;10.38;;;8.70;99.90;;;;;;5008212;28;20444;-79
2022/12/25 14:11:50;;;;;;;16.52;10.85;;;8.60;99.90;;;;;;5009188;28;20069;-78
2022/12/25 14:14:24;;;;;;;14.85;9.20;;;8.60;99.90;;;;;;5009028;28;20041;-78
2022/12/25 14:16:54;;;;;;;34.78;18.02;;;8.50;99.90;;;;;;5008288;28;20045;-79
2022/12/25 14:19:26;;;;;;;24.92;15.25;;;8.60;99.90;;;;;;5008850;28;20480;-79
2022/12/25 14:22:10;;;;;;;45.10;26.48;;;8.60;99.90;;;;;;5023553;28;20045;-78
2022/12/25 14:24:38;;;;;;;26.13;15.18;;;8.60;99.90;;;;;;5007913;28;20042;-78
2022/12/25 14:27:12;;;;;;;14.50;8.75;;;8.60;99.90;;;;;;5008064;28;20052;-78
2022/12/25 14:29:42;;;;;;;17.08;10.32;;;8.60;99.90;;;;;;5008517;28;20038;-78
2022/12/25 14:32:21;;;;;;;26.42;9.85;;;8.60;99.90;;;;;;5007927;28;20119;-78
2022/12/25 14:35:00;;;;;;;16.40;11.35;;;8.60;99.90;;;;;;5008751;28;20069;-78
2022/12/25 14:37:29;;;;;;;16.27;10.15;;;8.60;99.90;;;;;;5006990;28;20085;-78
2022/12/25 14:40:05;;;;;;;13.80;7.95;;;8.60;99.90;;;;;;5007253;28;20052;-78
2022/12/25 14:42:33;;;;;;;14.05;10.73;;;8.60;99.90;;;;;;5008349;28;20048;-78
2022/12/25 14:44:59;;;;;;;18.77;10.00;;;8.60;99.90;;;;;;5006463;28;20488;-78